createdAt,value
2019-01-14T00:04:23.726Z,1.00
2019-01-14T00:06:56.069Z,1.00
2019-01-14T00:13:11.225Z,1.00
2019-01-14T00:34:25.780Z,1.00
2019-01-14T00:36:58.165Z,1.00
2019-01-14T00:43:09.631Z,3.00
2019-01-14T00:46:16.634Z,1.40
2019-01-14T00:49:30.527Z,1.00
2019-01-14T00:52:23.459Z,0.00
2019-01-14T00:54:57.130Z,0.33
2019-01-14T01:00:32.059Z,1.40
2019-01-14T01:03:05.218Z,1.67
2019-01-14T01:08:29.071Z,1.67
2019-01-14T01:11:22.951Z,1.67
2019-01-14T01:17:38.003Z,1.33
2019-01-14T01:23:25.854Z,1.40
2019-01-14T01:26:16.669Z,1.33
2019-01-14T01:29:09.779Z,1.00
2019-01-14T01:32:01.410Z,1.00
2019-01-14T01:34:53.160Z,0.00
2019-01-14T01:37:45.027Z,0.60
2019-01-14T01:40:50.817Z,0.00
2019-01-14T01:43:12.772Z,0.00
2019-01-14T01:49:12.092Z,0.00
2019-01-14T01:52:02.366Z,0.00
2019-01-14T01:54:52.957Z,0.00
2019-01-14T01:57:43.568Z,0.00
2019-01-14T02:00:34.204Z,0.00
2019-01-14T02:05:56.685Z,0.00
2019-01-14T02:11:11.384Z,0.00
2019-01-14T02:14:01.972Z,0.00
2019-01-14T02:16:52.616Z,0.00
2019-01-14T02:19:24.575Z,0.00
2019-01-14T02:21:56.530Z,0.00
2019-01-14T02:24:47.614Z,0.00
2019-01-14T02:27:19.777Z,0.00
2019-01-14T02:29:51.831Z,0.00
2019-01-14T02:32:24.038Z,0.00
2019-01-14T02:34:56.239Z,0.00
2019-01-14T02:37:47.286Z,1.00
2019-01-14T02:40:38.941Z,1.00
2019-01-14T02:43:11.180Z,0.00
2019-01-14T02:45:43.028Z,0.00
2019-01-14T02:48:33.737Z,0.00
2019-01-14T02:51:05.992Z,0.00
2019-01-14T02:53:37.994Z,0.00
2019-01-14T02:56:28.119Z,0.00
2019-01-14T02:58:59.254Z,0.33
2019-01-14T03:01:30.465Z,0.00
2019-01-14T03:04:20.556Z,0.00
2019-01-14T03:07:10.638Z,0.00
2019-01-14T03:10:00.783Z,0.00
2019-01-14T03:12:31.884Z,0.00
2019-01-14T03:15:03.051Z,0.00
2019-01-14T03:17:34.471Z,0.00
2019-01-14T03:20:06.920Z,0.00
2019-01-14T03:22:38.938Z,0.00
2019-01-14T03:25:11.524Z,0.00
2019-01-14T03:27:42.660Z,0.00
2019-01-14T03:30:33.639Z,0.00
2019-01-14T03:33:23.714Z,0.00
2019-01-14T03:36:13.798Z,0.00
2019-01-14T03:38:44.889Z,0.00
2019-01-14T03:41:16.149Z,0.00
2019-01-14T03:43:47.269Z,0.00
2019-01-14T03:46:18.414Z,0.00
2019-01-14T03:48:49.508Z,0.67
2019-01-14T03:51:20.949Z,0.00
2019-01-14T03:53:52.037Z,0.00
2019-01-14T03:56:23.096Z,0.00
2019-01-14T03:58:54.457Z,0.00
2019-01-14T04:01:44.250Z,0.00
2019-01-14T04:04:34.372Z,0.00
2019-01-14T04:07:13.388Z,0.00
2019-01-14T04:09:57.252Z,0.00
2019-01-14T04:12:28.371Z,0.00
2019-01-14T04:15:19.178Z,0.00
2019-01-14T04:17:50.340Z,0.00
2019-01-14T04:20:41.324Z,0.00
2019-01-14T04:26:18.088Z,0.00
2019-01-14T04:28:49.179Z,0.00
2019-01-14T04:31:20.301Z,0.00
2019-01-14T04:33:51.390Z,0.00
2019-01-14T04:39:32.138Z,0.00
2019-01-14T04:42:03.296Z,0.00
2019-01-14T04:44:53.044Z,1.00
2019-01-14T04:47:43.152Z,0.33
2019-01-14T04:50:16.771Z,0.00
2019-01-14T04:52:47.986Z,0.00
2019-01-14T04:55:38.060Z,0.00
2019-01-14T04:58:09.186Z,0.00
2019-01-14T05:00:59.305Z,0.00
2019-01-14T05:03:49.460Z,0.00
2019-01-14T05:06:40.442Z,1.80
2019-01-14T05:09:11.564Z,0.00
2019-01-14T05:11:42.687Z,1.33
2019-01-14T05:14:13.773Z,0.00
2019-01-14T05:16:47.051Z,1.00
2019-01-14T05:19:18.152Z,1.33
2019-01-14T05:21:49.291Z,0.00
2019-01-14T05:24:20.376Z,2.00
2019-01-14T05:26:51.468Z,0.00
2019-01-14T05:29:42.386Z,1.00
2019-01-14T05:32:13.495Z,1.33
2019-01-14T05:34:44.835Z,0.00
2019-01-14T05:37:37.798Z,0.00
2019-01-14T05:40:12.180Z,0.00
2019-01-14T05:42:43.324Z,0.00
2019-01-14T05:45:36.357Z,0.00
2019-01-14T05:48:19.716Z,0.33
2019-01-14T05:51:10.948Z,1.00
2019-01-14T05:57:13.759Z,0.00
2019-01-14T05:59:44.846Z,0.00
2019-01-14T06:02:34.880Z,0.00
2019-01-14T06:05:24.972Z,0.00
2019-01-14T06:07:56.093Z,0.00
2019-01-14T06:10:47.074Z,0.00
2019-01-14T06:13:19.169Z,0.00
2019-01-14T06:15:50.296Z,0.00
2019-01-14T06:18:40.415Z,0.00
2019-01-14T06:21:11.529Z,0.00
2019-01-14T06:23:43.571Z,0.00
2019-01-14T06:26:35.294Z,0.00
2019-01-14T06:32:08.190Z,0.00
2019-01-14T06:34:39.372Z,0.00
2019-01-14T06:37:10.530Z,0.00
2019-01-14T06:40:01.554Z,0.00
2019-01-14T06:45:41.451Z,0.00
2019-01-14T06:48:12.502Z,0.00
2019-01-14T06:51:02.991Z,0.00
2019-01-14T06:53:34.107Z,0.00
2019-01-14T06:56:05.169Z,0.00
2019-01-14T06:58:36.585Z,0.00
2019-01-14T07:01:08.529Z,0.00
2019-01-14T07:06:31.169Z,0.00
2019-01-14T07:09:02.269Z,0.00
2019-01-14T07:11:55.044Z,0.00
2019-01-14T07:14:46.033Z,0.00
2019-01-14T07:17:17.505Z,0.00
2019-01-14T07:20:07.310Z,0.00
2019-01-14T07:22:58.322Z,0.00
2019-01-14T07:25:29.527Z,0.00
2019-01-14T07:28:01.524Z,0.00
2019-01-14T07:30:32.979Z,0.00
2019-01-14T07:33:04.081Z,0.00
2019-01-14T07:35:35.227Z,0.00
2019-01-14T07:38:09.174Z,0.00
2019-01-14T07:41:00.191Z,0.00
2019-01-14T07:43:32.273Z,0.00
2019-01-14T07:46:03.653Z,0.00
2019-01-14T07:48:54.633Z,0.00
2019-01-14T07:51:25.774Z,0.00
2019-01-14T07:54:15.651Z,0.00
2019-01-14T07:56:47.052Z,0.00
2019-01-14T07:59:18.498Z,0.00
2019-01-14T08:01:49.682Z,0.00
2019-01-14T08:04:40.747Z,0.00
2019-01-14T08:07:11.904Z,0.00
2019-01-14T08:10:02.934Z,0.00
2019-01-14T08:12:34.080Z,0.00
2019-01-14T08:15:28.489Z,0.00
2019-01-14T08:17:59.717Z,0.00
2019-01-14T08:20:50.925Z,0.00
2019-01-14T08:23:40.940Z,0.00
2019-01-14T08:26:12.356Z,0.00
2019-01-14T08:28:44.395Z,2.00
2019-01-14T08:36:52.558Z,0.00
2019-01-14T08:39:35.057Z,0.00
2019-01-14T08:45:08.131Z,0.00
2019-01-14T08:47:40.235Z,0.00
2019-01-14T08:50:30.311Z,0.00
2019-01-14T08:53:01.530Z,0.00
2019-01-14T08:55:52.331Z,0.00
2019-01-14T09:01:27.258Z,0.00
2019-01-14T09:03:59.599Z,0.00
2019-01-14T09:06:32.930Z,0.00
2019-01-14T09:09:23.994Z,0.00
2019-01-14T09:12:14.119Z,0.00
2019-01-14T09:14:45.654Z,0.00
2019-01-14T09:17:16.819Z,0.00
2019-01-14T09:19:48.800Z,0.00
2019-01-14T09:22:22.269Z,0.00
2019-01-14T09:25:12.086Z,0.00
2019-01-14T09:40:25.027Z,0.00
2019-01-14T09:42:56.219Z,0.00
2019-01-14T09:45:27.286Z,0.00
2019-01-14T09:48:12.601Z,0.00
2019-01-14T09:50:37.874Z,0.00
2019-01-14T09:53:11.478Z,0.00
2019-01-14T09:56:03.132Z,1.00
2019-01-14T09:58:35.161Z,0.60
2019-01-14T10:01:25.735Z,1.33
2019-01-14T10:03:59.783Z,5.00
2019-01-14T10:09:53.937Z,0.00
2019-01-14T10:15:28.496Z,8.00
2019-01-14T10:18:32.735Z,0.00
2019-01-14T10:20:51.573Z,0.00
2019-01-14T10:23:22.777Z,3.00
2019-01-14T10:26:16.295Z,0.00
2019-01-14T10:29:09.724Z,1.00
2019-01-14T10:35:00.242Z,0.00
2019-01-14T10:38:24.921Z,0.00
2019-01-14T10:40:44.562Z,0.00
2019-01-14T10:43:37.008Z,0.00
2019-01-14T10:46:39.150Z,0.00
2019-01-14T10:49:30.131Z,0.00
2019-01-14T10:52:07.506Z,0.60
2019-01-14T10:55:01.242Z,0.40
2019-01-14T11:00:35.193Z,0.00
2019-01-14T11:03:26.199Z,1.00
2019-01-14T11:05:58.601Z,1.00
2019-01-14T11:08:32.706Z,1.00
2019-01-14T11:11:04.644Z,1.00
2019-01-14T11:20:41.699Z,1.00
2019-01-14T11:26:32.903Z,0.00
2019-01-14T11:29:04.018Z,0.00
2019-01-14T11:31:36.001Z,0.00
2019-01-14T11:34:07.169Z,0.00
2019-01-14T11:36:40.481Z,0.67
2019-01-14T11:39:30.642Z,0.00
2019-01-14T11:48:24.238Z,0.00
2019-01-14T11:51:14.368Z,0.00
2019-01-14T11:59:39.499Z,0.00
2019-01-14T12:02:10.599Z,0.00
2019-01-14T12:04:41.716Z,1.00
2019-01-14T12:07:12.848Z,0.00
2019-01-14T12:12:53.838Z,0.00
2019-01-14T12:15:43.960Z,0.00
2019-01-14T12:18:15.115Z,0.00
2019-01-14T12:20:46.335Z,0.00
2019-01-14T12:23:36.544Z,0.00
2019-01-14T12:28:49.543Z,0.00
2019-01-14T12:31:20.787Z,0.00
2019-01-14T12:33:53.885Z,0.00
2019-01-14T12:36:44.012Z,0.00
2019-01-14T12:39:34.105Z,0.00
2019-01-14T12:42:36.175Z,0.00
2019-01-14T12:44:57.051Z,0.00
2019-01-14T12:47:47.179Z,0.00
2019-01-14T12:50:49.423Z,0.00
2019-01-14T12:53:39.728Z,0.00
2019-01-14T13:01:58.307Z,0.00
2019-01-14T13:04:29.522Z,0.00
2019-01-14T13:10:21.459Z,0.00
2019-01-14T13:12:52.566Z,0.67
2019-01-14T13:15:42.739Z,0.00
2019-01-14T13:18:16.676Z,0.00
2019-01-14T13:21:07.134Z,0.00
2019-01-14T13:23:57.209Z,0.00
2019-01-14T13:29:29.053Z,0.00
2019-01-14T13:32:22.130Z,0.00
2019-01-14T13:41:04.940Z,0.00
2019-01-14T13:43:56.400Z,0.00
2019-01-14T13:46:27.534Z,0.00
2019-01-14T13:51:54.620Z,0.00
2019-01-14T13:54:28.159Z,0.00
2019-01-14T13:57:18.296Z,0.67
2019-01-14T14:00:09.462Z,0.00
2019-01-14T14:06:09.088Z,0.00
2019-01-14T14:14:33.731Z,1.00
2019-01-14T14:20:21.322Z,1.00
2019-01-14T14:22:51.935Z,0.00
2019-01-14T14:25:42.001Z,1.00
2019-01-14T14:34:08.018Z,1.00
2019-01-14T14:36:41.725Z,1.00
2019-01-14T14:39:34.585Z,1.00
2019-01-14T14:42:37.763Z,1.00
2019-01-14T14:45:28.841Z,1.00
2019-01-14T14:48:40.361Z,1.00
2019-01-14T14:51:30.478Z,1.00
2019-01-14T14:54:21.421Z,1.00
2019-01-14T14:57:11.521Z,1.00
2019-01-14T15:00:02.469Z,0.40
2019-01-14T15:02:52.581Z,1.00
2019-01-14T15:08:45.091Z,1.00
2019-01-14T15:11:17.095Z,1.00
2019-01-14T15:17:03.768Z,0.00
2019-01-14T15:19:43.979Z,0.00
2019-01-14T15:22:15.976Z,0.00
2019-01-14T15:25:06.171Z,0.00
2019-01-14T15:27:42.356Z,0.00
2019-01-14T15:30:53.050Z,0.00
2019-01-14T15:36:24.508Z,0.00
2019-01-14T15:39:16.357Z,0.00
2019-01-14T15:42:07.206Z,0.00
2019-01-14T15:44:38.329Z,1.33
2019-01-14T15:47:09.523Z,0.00
2019-01-14T15:49:40.653Z,0.00
2019-01-14T15:52:11.793Z,0.00
2019-01-14T15:55:02.489Z,0.00
2019-01-14T16:00:35.846Z,0.00
2019-01-14T16:05:58.668Z,0.00
2019-01-14T16:11:43.904Z,0.00
2019-01-14T16:14:34.350Z,0.00
2019-01-14T16:20:19.002Z,2.00
2019-01-14T16:23:08.878Z,0.00
2019-01-14T16:31:52.767Z,2.00
2019-01-14T16:34:55.726Z,1.20
2019-01-14T16:37:48.571Z,0.67
2019-01-14T16:40:39.933Z,0.67
2019-01-14T16:46:13.191Z,1.00
2019-01-14T16:48:44.345Z,2.00
2019-01-14T16:51:53.934Z,1.20
2019-01-14T16:57:17.493Z,2.67
2019-01-14T16:59:49.569Z,1.00
2019-01-14T17:02:21.555Z,0.40
2019-01-14T17:05:13.628Z,0.00
2019-01-14T17:08:05.115Z,1.60
2019-01-14T17:16:41.533Z,1.33
2019-01-14T17:19:31.571Z,0.00
2019-01-14T17:22:21.729Z,2.00
2019-01-14T17:25:12.689Z,1.00
2019-01-14T17:27:47.706Z,0.00
2019-01-14T17:30:40.221Z,0.00
2019-01-14T17:33:30.327Z,0.00
2019-01-14T17:36:20.947Z,2.00
2019-01-14T17:45:18.828Z,0.67
2019-01-14T17:48:04.814Z,2.00
2019-01-14T17:51:09.151Z,2.00
2019-01-14T17:53:27.742Z,2.00
2019-01-14T17:55:58.879Z,0.67
2019-01-14T17:59:01.574Z,0.00
2019-01-14T18:04:33.876Z,0.80
2019-01-14T18:07:10.911Z,2.00
2019-01-14T18:09:42.919Z,1.60
2019-01-14T18:15:25.618Z,2.67
2019-01-14T18:24:23.290Z,2.00
2019-01-14T18:26:54.543Z,2.00
2019-01-14T18:29:28.793Z,4.00
2019-01-14T18:31:59.955Z,4.00
2019-01-14T18:40:33.482Z,2.67
2019-01-14T18:43:18.774Z,2.67
2019-01-14T18:46:08.929Z,4.00
2019-01-14T18:54:54.706Z,0.40
2019-01-14T18:57:25.846Z,2.00
2019-01-14T19:00:15.951Z,4.00
2019-01-14T19:03:06.305Z,4.00
2019-01-14T19:05:50.140Z,4.00
2019-01-14T19:08:41.172Z,2.00
2019-01-14T19:11:16.802Z,6.00
2019-01-14T19:13:47.909Z,4.00
2019-01-14T19:19:37.240Z,2.00
2019-01-14T19:22:17.195Z,2.00
2019-01-14T19:25:02.603Z,2.00
2019-01-14T19:27:40.951Z,2.00
2019-01-14T19:30:32.667Z,1.60
2019-01-14T19:36:37.816Z,2.00
2019-01-14T19:39:27.945Z,2.67
2019-01-14T19:41:59.352Z,1.33
2019-01-14T19:44:31.359Z,4.00
2019-01-14T19:47:24.036Z,2.67
2019-01-14T19:50:08.150Z,2.00
2019-01-14T19:52:50.762Z,2.67
2019-01-14T19:55:21.859Z,2.00
2019-01-14T19:57:53.957Z,2.00
2019-01-14T20:00:46.806Z,1.60
2019-01-14T20:03:21.875Z,0.67
2019-01-14T20:06:24.180Z,2.00
2019-01-14T20:08:56.425Z,0.00
2019-01-14T20:11:46.534Z,1.00
2019-01-14T20:14:17.725Z,2.00
2019-01-14T20:17:11.096Z,3.50
2019-01-14T20:20:01.173Z,1.00
2019-01-14T20:22:52.424Z,2.00
2019-01-14T20:25:43.391Z,0.00
2019-01-14T20:28:34.335Z,0.00
2019-01-14T20:31:05.598Z,0.67
2019-01-14T20:33:37.598Z,0.80
2019-01-14T20:36:28.858Z,0.00
2019-01-14T20:39:00.003Z,1.33
2019-01-14T20:47:23.620Z,2.00
2019-01-14T20:49:57.241Z,0.00
2019-01-14T20:52:48.200Z,2.00
2019-01-14T20:55:39.267Z,2.00
2019-01-14T20:58:29.155Z,0.00
2019-01-14T21:01:19.257Z,2.00
2019-01-14T21:03:50.562Z,4.00
2019-01-14T21:06:42.140Z,2.00
2019-01-14T21:09:35.953Z,6.40
2019-01-14T21:12:26.928Z,2.00
2019-01-14T21:18:06.743Z,2.00
2019-01-14T21:23:46.522Z,2.00
2019-01-14T21:29:27.883Z,0.00
2019-01-14T21:35:08.553Z,2.00
2019-01-14T21:40:37.001Z,2.00
2019-01-14T21:46:19.997Z,2.00
2019-01-14T21:51:53.097Z,2.00
2019-01-14T21:54:37.089Z,2.00
2019-01-14T21:57:19.121Z,1.33
2019-01-14T22:00:09.598Z,2.00
2019-01-14T22:02:59.724Z,2.00
2019-01-14T22:05:52.499Z,2.00
2019-01-14T22:08:24.637Z,2.00
2019-01-14T22:10:55.668Z,4.00
2019-01-14T22:22:24.235Z,2.00
2019-01-14T22:24:55.319Z,2.00
2019-01-14T22:27:26.391Z,2.00
2019-01-14T22:30:17.618Z,2.67
2019-01-14T22:32:48.778Z,4.00
2019-01-14T22:35:19.865Z,2.00
2019-01-14T22:38:09.956Z,4.00
2019-01-14T22:41:02.038Z,2.50
2019-01-14T22:43:54.559Z,2.00
2019-01-14T22:46:40.659Z,3.60
2019-01-14T22:49:33.525Z,2.80
2019-01-14T22:51:54.428Z,2.00
2019-01-14T22:54:25.527Z,3.33
2019-01-14T22:57:17.167Z,2.67
2019-01-14T23:03:30.881Z,5.00
2019-01-14T23:06:21.002Z,4.00
2019-01-14T23:08:52.118Z,4.00
2019-01-14T23:11:41.928Z,4.00
2019-01-14T23:14:35.567Z,6.00
2019-01-14T23:17:25.702Z,4.00
2019-01-14T23:20:15.815Z,4.00
2019-01-14T23:22:47.234Z,2.00
2019-01-14T23:25:19.346Z,4.00
2019-01-14T23:33:59.054Z,2.50
2019-01-14T23:36:48.766Z,2.00
2019-01-14T23:42:30.297Z,4.00
2019-01-14T23:48:15.379Z,2.67
2019-01-14T23:50:48.415Z,2.00
2019-01-14T23:53:38.810Z,3.33
2019-01-14T23:56:28.838Z,3.33
2019-01-14T23:59:19.040Z,4.00
